Time;durP1;ratioP1;P1;durP2;ratioP2;P2;SDS_P1;SDS_P2;PMS_P1;PMS_P2;Temp;Humidity;BMP_temperature;BMP_pressure;BME280_temperature;BME280_humidity;BME280_pressure;Samples;Min_cycle;Max_cycle;Signal;HPM_P1;HPM_P2
2021/11/20 00:01:13;;;;;;;;;17.50;14.00;;;;;11.42;84.25;102654.34;5068929;28;45551;-56
2021/11/20 00:03:43;;;;;;;;;21.50;16.75;;;;;11.42;84.62;102655.22;5070042;27;45367;-57
2021/11/20 00:06:08;;;;;;;;;21.00;16.75;;;;;11.45;84.58;102654.34;5071540;27;45819;-57
2021/11/20 00:08:34;;;;;;;;;23.00;13.00;;;;;11.47;84.58;102652.59;5070228;27;45498;-56
2021/11/20 00:11:04;;;;;;;;;17.25;14.50;;;;;11.50;84.71;102656.06;5070584;28;45398;-56
2021/11/20 00:13:29;;;;;;;;;18.50;14.25;;;;;11.50;84.49;102652.59;5073137;27;45227;-58
2021/11/20 00:16:00;;;;;;;;;12.75;10.75;;;;;11.48;84.29;102654.34;5067642;27;46740;-58
2021/11/20 00:18:26;;;;;;;;;15.00;12.00;;;;;11.44;84.14;102647.41;5081397;27;45367;-58
2021/11/20 00:20:55;;;;;;;;;14.00;9.75;;;;;11.37;84.27;102643.91;5072083;28;45291;-57
2021/11/20 00:23:34;;;;;;;;;14.00;10.50;;;;;11.33;84.50;102647.41;5078595;28;45543;-57
2021/11/20 00:26:03;;;;;;;;;19.00;11.50;;;;;11.30;84.45;102639.59;5080905;27;45399;-57
2021/11/20 00:28:41;;;;;;;;;8.25;6.50;;;;;11.28;85.04;102644.81;5078105;27;45785;-57
2021/11/20 00:31:09;;;;;;;;;12.75;11.00;;;;;11.30;84.94;102637.00;5074293;27;45342;-57
2021/11/20 00:33:37;;;;;;;;;13.50;9.25;;;;;11.33;85.38;102637.00;5080803;27;45472;-57
2021/11/20 00:36:04;;;;;;;;;16.75;9.75;;;;;11.29;84.83;102632.66;5080845;27;45477;-57
2021/11/20 00:38:30;;;;;;;;;11.00;9.00;;;;;11.25;85.14;102628.31;5078774;27;45684;-57
2021/11/20 00:41:07;;;;;;;;;10.00;8.50;;;;;11.19;85.21;102620.50;5079569;28;45223;-57
2021/11/20 00:43:33;;;;;;;;;13.25;10.00;;;;;11.24;85.38;102629.19;5071539;27;45319;-57
2021/11/20 00:45:59;;;;;;;;;7.00;6.25;;;;;11.21;85.32;102623.97;5067830;27;46542;-57
2021/11/20 00:48:26;;;;;;;;;8.00;8.00;;;;;11.22;85.12;102620.53;5069014;27;45460;-57
2021/11/20 00:50:55;;;;;;;;;11.25;6.00;;;;;11.24;85.48;102617.03;5073055;27;45485;-57
2021/11/20 00:53:20;;;;;;;;;10.75;9.00;;;;;11.26;85.74;102612.72;5070762;28;45420;-57
2021/11/20 00:55:47;;;;;;;;;14.25;9.00;;;;;11.31;85.46;102611.84;5068227;27;46619;-57
2021/11/20 00:58:13;;;;;;;;;11.25;10.00;;;;;11.32;85.42;102610.97;5068224;27;45337;-57
2021/11/20 01:00:43;;;;;;;;;9.25;8.50;;;;;11.27;85.24;102609.22;5067798;27;45472;-57
2021/11/20 01:03:09;;;;;;;;;10.00;9.75;;;;;11.26;85.41;102601.44;5066805;27;45422;-57
2021/11/20 01:05:35;;;;;;;;;10.00;8.50;;;;;11.30;85.35;102599.69;5065170;28;46655;-57
2021/11/20 01:08:02;;;;;;;;;9.00;9.00;;;;;11.31;85.28;102604.03;5065620;27;45536;-57
2021/11/20 01:10:32;;;;;;;;;8.00;7.00;;;;;11.31;85.69;102599.69;5068782;28;45316;-56
2021/11/20 01:12:59;;;;;;;;;10.00;9.00;;;;;11.32;85.54;102601.41;5070317;27;45279;-56
2021/11/20 01:15:30;;;;;;;;;14.25;9.50;;;;;11.35;85.55;102605.75;5068603;27;45412;-60
2021/11/20 01:17:55;;;;;;;;;12.00;9.25;;;;;11.35;85.73;102596.19;5069009;27;45500;-58
2021/11/20 01:20:21;;;;;;;;;13.00;11.50;;;;;11.38;85.75;102593.59;5066910;28;45645;-58
2021/11/20 01:22:47;;;;;;;;;16.25;15.00;;;;;11.41;85.87;102591.00;5066879;28;45386;-58
2021/11/20 01:25:13;;;;;;;;;11.50;10.50;;;;;11.42;85.56;102587.53;5067878;28;45449;-59
2021/11/20 01:27:40;;;;;;;;;14.25;12.00;;;;;11.45;85.89;102573.66;5069654;28;45324;-58
2021/11/20 01:30:07;;;;;;;;;13.00;9.25;;;;;11.45;85.30;102584.94;5068169;27;45350;-58
2021/11/20 01:32:33;;;;;;;;;15.75;14.25;;;;;11.45;85.36;102584.94;5069246;27;45986;-59
2021/11/20 01:34:59;;;;;;;;;14.00;11.50;;;;;11.41;85.56;102579.69;5067707;28;45514;-60
2021/11/20 01:37:24;;;;;;;;;14.50;10.00;;;;;11.36;85.21;102581.44;5067712;28;45425;-60
2021/11/20 01:39:50;;;;;;;;;10.50;10.00;;;;;11.32;85.76;102579.72;5067423;28;45433;-60
2021/11/20 01:42:31;;;;;;;;;11.75;11.50;;;;;11.33;85.67;102586.66;5067738;27;45291;-58
2021/11/20 01:45:04;;;;;;;;;12.00;10.25;;;;;11.30;85.58;102581.47;5068815;28;46471;-58
2021/11/20 01:47:41;;;;;;;;;13.00;9.75;;;;;11.24;86.23;102588.41;5066822;28;45429;-58
2021/11/20 01:50:12;;;;;;;;;12.25;10.50;;;;;11.20;85.39;102578.84;5067044;27;45318;-58
2021/11/20 01:53:24;;;;;;;;;17.50;14.50;;;;;11.14;85.16;102573.66;5068331;28;45365;-58
2021/11/20 01:56:05;;;;;;;;;11.25;10.25;;;;;11.07;85.99;102573.69;5006314;28;46723;-58
2021/11/20 01:59:11;;;;;;;;;20.75;10.00;;;;;11.07;86.89;102566.75;5005267;28;45291;-58
2021/11/20 02:01:48;;;;;;;;;14.00;10.75;;;;;11.10;86.79;102560.66;5056297;28;45302;-58
2021/11/20 02:04:33;;;;;;;;;16.50;12.75;;;;;11.11;86.86;102563.25;5067583;28;45323;-58
2021/11/20 02:07:20;;;;;;;;;19.00;14.00;;;;;11.11;87.23;102559.78;5066309;28;46164;-58
2021/11/20 02:10:07;;;;;;;;;17.00;13.50;;;;;11.12;87.04;102565.00;5067728;28;45384;-58
2021/11/20 02:12:46;;;;;;;;;16.75;12.75;;;;;11.15;87.38;102557.19;5070391;27;45461;-58
2021/11/20 02:15:17;;;;;;;;;12.50;11.00;;;;;11.16;87.14;102558.03;5068976;28;45234;-58
2021/11/20 02:17:48;;;;;;;;;18.50;14.25;;;;;11.20;87.21;102555.44;5072699;27;45665;-58
2021/11/20 02:20:21;;;;;;;;;16.75;15.00;;;;;11.22;87.55;102563.25;5071056;27;45476;-58
2021/11/20 02:22:47;;;;;;;;;16.75;14.50;;;;;11.22;87.23;102552.84;5071619;27;45465;-58
2021/11/20 02:25:13;;;;;;;;;14.33;12.00;;;;;11.19;86.96;102558.91;5071646;27;59605;-58
2021/11/20 02:27:44;;;;;;;;;14.50;11.00;;;;;11.19;87.00;102555.44;5072214;27;46216;-58
2021/11/20 02:30:21;;;;;;;;;14.25;11.75;;;;;11.17;87.24;102539.81;5070420;27;45455;-58
2021/11/20 02:32:51;;;;;;;;;21.75;12.00;;;;;11.19;86.96;102545.03;5071074;27;45307;-59
2021/11/20 02:35:22;;;;;;;;;20.25;16.25;;;;;11.20;86.80;102538.94;5072137;27;45335;-58
2021/11/20 02:37:47;;;;;;;;;16.25;12.50;;;;;11.21;86.65;102535.47;5071309;27;45284;-59
2021/11/20 02:40:15;;;;;;;;;16.00;11.00;;;;;11.19;86.53;102539.81;5071290;27;45448;-59
2021/11/20 02:42:43;;;;;;;;;21.00;14.00;;;;;11.21;86.66;102538.97;5069134;27;45500;-58
2021/11/20 02:45:30;;;;;;;;;16.00;15.00;;;;;11.13;87.00;102547.66;5067018;27;45509;-58
2021/11/20 02:47:57;;;;;;;;;11.75;10.75;;;;;11.11;87.00;102532.03;5071045;27;47258;-58
2021/11/20 02:50:37;;;;;;;;;14.25;13.00;;;;;11.12;87.15;102536.38;5074039;27;45370;-58
2021/11/20 02:53:06;;;;;;;;;17.25;12.75;;;;;11.10;87.56;102525.09;5070459;28;45369;-57
2021/11/20 02:55:33;;;;;;;;;20.50;14.25;;;;;11.14;87.53;102518.16;5070818;27;45240;-57
2021/11/20 02:57:58;;;;;;;;;17.25;15.75;;;;;11.13;87.66;102517.28;5071007;27;46197;-58
2021/11/20 03:00:24;;;;;;;;;18.25;16.25;;;;;11.17;87.48;102515.53;5071062;27;45286;-59
2021/11/20 03:02:50;;;;;;;;;23.00;15.00;;;;;11.18;87.15;102517.28;5072075;27;45351;-58
2021/11/20 03:05:17;;;;;;;;;21.50;17.00;;;;;11.15;87.18;102518.16;5070244;27;45740;-58
2021/11/20 03:07:42;;;;;;;;;17.00;12.25;;;;;11.11;87.24;102508.63;5069560;27;45472;-58
2021/11/20 03:10:09;;;;;;;;;19.00;14.75;;;;;11.07;87.01;102512.09;5070522;27;45374;-58
2021/11/20 03:12:34;;;;;;;;;22.75;15.75;;;;;11.05;87.38;102506.03;5074274;27;45515;-58
2021/11/20 03:14:59;;;;;;;;;20.75;15.25;;;;;11.01;87.18;102506.88;5072046;27;45607;-58
2021/11/20 03:17:25;;;;;;;;;17.50;11.50;;;;;10.96;87.47;102508.63;5069688;27;45867;-58
2021/11/20 03:19:51;;;;;;;;;22.50;14.25;;;;;10.94;87.39;102503.44;5076450;27;45473;-58
2021/11/20 03:22:17;;;;;;;;;24.75;18.00;;;;;10.91;86.83;102499.97;5071576;27;45457;-58
2021/11/20 03:24:43;;;;;;;;;21.00;14.75;;;;;10.87;87.81;102495.63;5068136;27;45311;-58
2021/11/20 03:27:09;;;;;;;;;16.25;13.00;;;;;10.88;87.60;102494.78;5081534;27;46228;-58
2021/11/20 03:29:35;;;;;;;;;19.00;14.25;;;;;10.85;87.52;102479.19;5077722;27;45900;-58
2021/11/20 03:32:01;;;;;;;;;16.00;12.75;;;;;10.83;87.51;102479.19;5073970;28;45473;-58
2021/11/20 03:34:29;;;;;;;;;11.75;10.25;;;;;10.90;87.34;102475.69;5070823;27;45552;-58
2021/11/20 03:36:55;;;;;;;;;19.75;13.50;;;;;10.92;87.53;102470.47;5070018;27;46607;-58
2021/11/20 03:39:20;;;;;;;;;23.75;15.50;;;;;10.95;87.15;102470.47;5069142;27;45164;-58
2021/11/20 03:41:46;;;;;;;;;18.50;12.00;;;;;10.94;87.19;102466.16;5070230;27;45243;-58
2021/11/20 03:44:12;;;;;;;;;14.00;11.25;;;;;10.95;87.25;102460.06;5072459;27;45347;-58
2021/11/20 03:46:39;;;;;;;;;21.50;14.00;;;;;10.97;87.32;102458.34;5069133;28;45614;-58
2021/11/20 03:49:05;;;;;;;;;19.75;14.00;;;;;10.97;87.16;102453.13;5069745;28;45971;-58
2021/11/20 03:51:31;;;;;;;;;17.75;11.75;;;;;10.93;87.23;102449.66;5071494;27;45320;-59
2021/11/20 03:53:57;;;;;;;;;10.00;6.25;;;;;10.92;86.74;102441.88;5066191;28;45347;-58
2021/11/20 03:56:22;;;;;;;;;17.50;13.00;;;;;10.89;87.01;102439.28;5074268;28;45426;-56
2021/11/20 03:58:48;;;;;;;;;15.25;10.75;;;;;10.84;86.95;102436.69;5080622;27;45424;-56
2021/11/20 04:01:17;;;;;;;;;18.00;14.50;;;;;10.76;87.12;102428.00;5080535;27;45469;-57
2021/11/20 04:03:44;;;;;;;;;18.50;11.75;;;;;10.81;87.02;102441.00;5080670;27;45301;-57
2021/11/20 04:06:12;;;;;;;;;16.00;13.50;;;;;10.83;86.94;102436.69;5080465;27;45500;-57
2021/11/20 04:08:49;;;;;;;;;11.00;10.00;;;;;10.87;86.96;102431.47;5080253;27;45324;-57
2021/11/20 04:11:20;;;;;;;;;14.75;10.50;;;;;10.86;86.59;102434.94;5080565;28;45244;-57
2021/11/20 04:13:47;;;;;;;;;10.25;9.50;;;;;10.87;86.63;102430.63;5082943;27;45602;-57
2021/11/20 04:16:15;;;;;;;;;18.00;10.50;;;;;10.90;86.69;102428.88;5080124;27;46126;-56
2021/11/20 04:18:42;;;;;;;;;10.00;9.75;;;;;10.91;86.66;102421.94;5085225;27;45840;-57
2021/11/20 04:21:09;;;;;;;;;12.00;10.25;;;;;10.88;86.24;102417.59;5075047;27;45321;-56
2021/11/20 04:23:35;;;;;;;;;14.75;9.25;;;;;10.82;86.41;102411.56;5079958;27;45414;-56
2021/11/20 04:26:01;;;;;;;;;8.00;8.00;;;;;10.76;86.67;102420.22;5080266;27;46533;-56
2021/11/20 04:28:26;;;;;;;;;12.25;10.00;;;;;10.68;86.72;102402.91;5080038;27;46198;-56
2021/11/20 04:30:52;;;;;;;;;11.25;9.00;;;;;10.72;86.89;102404.63;5080135;27;45737;-57
2021/11/20 04:33:17;;;;;;;;;12.75;10.00;;;;;10.72;87.02;102404.63;5080082;27;45759;-57
2021/11/20 04:35:43;;;;;;;;;12.50;11.00;;;;;10.75;87.01;102405.47;5080054;27;45428;-57
2021/11/20 04:38:10;;;;;;;;;12.00;9.00;;;;;10.76;86.77;102402.00;5079157;27;45420;-58
2021/11/20 04:40:37;;;;;;;;;11.50;8.00;;;;;10.73;86.73;102395.97;5078809;27;45493;-58
2021/11/20 04:43:02;;;;;;;;;15.25;9.75;;;;;10.68;86.80;102395.09;5079789;27;45563;-58
2021/11/20 04:45:34;;;;;;;;;8.75;6.00;;;;;10.65;86.74;102398.59;5079633;27;45589;-58
2021/11/20 04:48:00;;;;;;;;;3.00;3.00;;;;;10.60;86.22;102405.50;5080007;27;45268;-58
2021/11/20 04:50:26;;;;;;;;;6.00;5.00;;;;;10.51;86.00;102395.97;5080024;27;45348;-58
2021/11/20 04:52:52;;;;;;;;;7.00;4.00;;;;;10.47;86.23;102396.00;5078936;27;45429;-58
2021/11/20 04:55:19;;;;;;;;;4.50;3.50;;;;;10.43;85.98;102391.66;5078733;27;45546;-58
2021/11/20 04:57:45;;;;;;;;;5.75;2.50;;;;;10.34;86.25;102385.59;5079604;27;45513;-58
2021/11/20 05:00:19;;;;;;;;;3.50;2.25;;;;;10.29;86.65;102391.66;5079498;27;45528;-58
2021/11/20 05:02:45;;;;;;;;;6.25;3.75;;;;;10.29;86.83;102381.25;5078517;27;45480;-58
2021/11/20 05:05:11;;;;;;;;;4.75;4.00;;;;;10.30;86.53;102380.41;5079142;28;46488;-57
2021/11/20 05:07:37;;;;;;;;;5.00;4.00;;;;;10.28;86.27;102387.34;5079332;28;45771;-57
2021/11/20 05:10:03;;;;;;;;;9.25;4.00;;;;;10.25;86.36;102389.94;5069508;27;45251;-58
2021/11/20 05:12:29;;;;;;;;;6.75;6.00;;;;;10.24;86.31;102383.00;5070833;27;45268;-58
2021/11/20 05:14:54;;;;;;;;;7.25;5.25;;;;;10.18;86.02;102389.00;5070735;27;46244;-58
2021/11/20 05:17:20;;;;;;;;;3.75;3.25;;;;;10.17;86.74;102383.81;5068340;28;46236;-58
2021/11/20 05:19:45;;;;;;;;;4.50;4.25;;;;;10.21;86.60;102385.56;5072253;27;45432;-57
2021/11/20 05:22:10;;;;;;;;;4.50;4.50;;;;;10.21;86.55;102386.47;5068163;27;45431;-57
2021/11/20 05:24:36;;;;;;;;;4.25;4.25;;;;;10.19;86.48;102379.47;5068688;27;46517;-57
2021/11/20 05:27:02;;;;;;;;;4.75;3.00;;;;;10.20;87.05;102382.09;5069088;27;45396;-58
2021/11/20 05:29:38;;;;;;;;;3.00;3.00;;;;;10.24;86.63;102381.28;5069463;27;45455;-57
2021/11/20 05:32:04;;;;;;;;;8.25;7.00;;;;;10.25;87.14;102375.22;5070165;27;45361;-56
2021/11/20 05:34:29;;;;;;;;;3.00;3.00;;;;;10.27;86.78;102377.81;5070160;27;46117;-56
2021/11/20 05:36:55;;;;;;;;;2.50;2.25;;;;;10.29;86.97;102369.13;5068068;28;45466;-56
2021/11/20 05:39:21;;;;;;;;;6.25;5.25;;;;;10.33;87.13;102367.41;5069302;28;45330;-56
2021/11/20 05:41:47;;;;;;;;;3.25;3.00;;;;;10.37;87.19;102366.53;5069697;28;45428;-56
2021/11/20 05:44:13;;;;;;;;;3.50;3.50;;;;;10.33;86.87;102364.81;5070517;27;46403;-56
2021/11/20 05:46:38;;;;;;;;;3.50;2.75;;;;;10.33;87.04;102364.81;5068867;27;45258;-55
2021/11/20 05:49:04;;;;;;;;;5.25;5.25;;;;;10.32;87.05;102363.06;5068579;27;45532;-56
2021/11/20 05:51:30;;;;;;;;;4.00;3.75;;;;;10.35;86.74;102357.88;5075468;28;45384;-56
2021/11/20 05:53:55;;;;;;;;;4.25;3.00;;;;;10.35;87.38;102357.88;5073722;27;46066;-56
2021/11/20 05:56:21;;;;;;;;;4.50;3.00;;;;;10.34;86.87;102357.00;5073537;27;45230;-56
2021/11/20 05:58:46;;;;;;;;;5.50;4.00;;;;;10.34;87.01;102357.00;5080426;27;45496;-55
2021/11/20 06:01:14;;;;;;;;;7.50;6.50;;;;;10.34;86.73;102362.19;5082974;27;45211;-54
2021/11/20 06:03:40;;;;;;;;;5.25;5.25;;;;;10.34;86.73;102363.94;5082661;27;46179;-55
2021/11/20 06:06:06;;;;;;;;;6.50;4.00;;;;;10.31;86.39;102363.94;5083146;27;45400;-54
2021/11/20 06:08:32;;;;;;;;;7.25;4.50;;;;;10.27;86.67;102373.47;5083000;27;45328;-54
2021/11/20 06:11:00;;;;;;;;;8.25;5.25;;;;;10.27;86.57;102367.41;5083103;27;45352;-55
2021/11/20 06:13:27;;;;;;;;;5.50;2.25;;;;;10.21;86.87;102360.50;5083842;27;46342;-54
2021/11/20 06:15:54;;;;;;;;;9.25;7.25;;;;;10.21;87.31;102365.69;5082697;27;45416;-53
2021/11/20 06:18:20;;;;;;;;;10.50;9.00;;;;;10.22;87.17;102357.03;5086211;27;45411;-53
2021/11/20 06:20:47;;;;;;;;;6.25;6.25;;;;;10.25;86.89;102362.22;5078438;27;45384;-53
2021/11/20 06:23:13;;;;;;;;;7.00;5.25;;;;;10.27;87.12;102354.41;5082379;27;45547;-53
2021/11/20 06:25:39;;;;;;;;;8.00;7.00;;;;;10.29;87.03;102355.28;5087782;27;45739;-53
2021/11/20 06:28:05;;;;;;;;;7.75;4.75;;;;;10.32;87.47;102353.53;5081510;27;45456;-55
2021/11/20 06:30:32;;;;;;;;;5.00;5.00;;;;;10.33;86.73;102357.00;5081374;27;45253;-55
2021/11/20 06:32:58;;;;;;;;;12.75;6.25;;;;;10.29;87.31;102356.16;5082531;27;45386;-55
2021/11/20 06:35:26;;;;;;;;;10.50;7.00;;;;;10.31;87.46;102362.22;5082772;27;45340;-55
2021/11/20 06:37:52;;;;;;;;;12.00;7.50;;;;;10.34;87.72;102361.34;5081944;28;45461;-55
2021/11/20 06:40:30;;;;;;;;;8.50;5.25;;;;;10.34;87.80;102363.94;5074976;28;45393;-55
2021/11/20 06:42:56;;;;;;;;;9.50;5.50;;;;;10.35;87.64;102363.94;5082384;27;46064;-55
2021/11/20 06:45:25;;;;;;;;;7.00;3.00;;;;;10.36;87.06;102365.66;5082395;27;45243;-56
2021/11/20 06:47:51;;;;;;;;;9.25;7.25;;;;;10.33;87.08;102367.41;5082619;27;46566;-55
2021/11/20 06:50:17;;;;;;;;;7.50;7.50;;;;;10.27;86.65;102365.69;5082489;27;45479;-57
2021/11/20 06:52:43;;;;;;;;;7.00;3.75;;;;;10.20;86.54;102358.69;5082005;27;46382;-56
2021/11/20 06:55:10;;;;;;;;;7.75;6.00;;;;;10.17;87.06;102357.84;5082278;27;45279;-56
2021/11/20 07:00:28;;;;;;;;;8.50;7.00;;;;;10.22;87.45;102354.44;5082084;27;45397;-56
2021/11/20 07:03:02;;;;;;;;;7.50;6.75;;;;;10.25;87.24;102357.03;5075713;28;46243;-56
2021/11/20 07:05:31;;;;;;;;;6.00;6.00;;;;;10.31;87.63;102353.53;5082281;27;45997;-57
2021/11/20 07:07:58;;;;;;;;;12.75;8.75;;;;;10.33;87.76;102355.28;5081995;27;45299;-56
2021/11/20 07:10:26;;;;;;;;;10.50;7.25;;;;;10.38;87.72;102351.81;5082006;28;45370;-57
2021/11/20 07:12:53;;;;;;;;;5.50;3.75;;;;;10.39;87.16;102345.72;5084285;27;45462;-56
2021/11/20 07:15:20;;;;;;;;;8.50;7.00;;;;;10.38;87.20;102337.06;5081856;27;45240;-56
2021/11/20 07:17:46;;;;;;;;;7.75;7.00;;;;;10.41;87.04;102341.41;5082943;27;45246;-56
2021/11/20 07:20:13;;;;;;;;;9.00;6.00;;;;;10.42;87.07;102341.41;5080585;27;45158;-56
2021/11/20 07:22:39;;;;;;;;;11.00;6.75;;;;;10.40;87.14;102343.13;5081477;27;46616;-56
2021/11/20 07:25:05;;;;;;;;;9.75;7.00;;;;;10.37;87.02;102345.75;5081832;27;45373;-55
2021/11/20 07:27:30;;;;;;;;;9.50;9.00;;;;;10.36;87.04;102346.59;5081773;28;45349;-55
2021/11/20 07:29:55;;;;;;;;;8.50;7.00;;;;;10.39;87.34;102348.31;5081698;27;45357;-56
2021/11/20 07:32:21;;;;;;;;;6.75;6.75;;;;;10.36;86.94;102352.66;5081329;27;45471;-55
2021/11/20 07:34:46;;;;;;;;;10.25;6.75;;;;;10.29;87.22;102352.69;5071843;28;45754;-55
2021/11/20 07:37:12;;;;;;;;;10.25;8.00;;;;;10.30;87.16;102350.09;5081195;27;45391;-55
2021/11/20 07:39:38;;;;;;;;;9.25;8.00;;;;;10.29;87.30;102355.28;5079008;27;45556;-56
2021/11/20 07:42:04;;;;;;;;;12.25;10.00;;;;;10.29;87.18;102352.69;5076166;27;46210;-55
2021/11/20 07:44:30;;;;;;;;;12.25;8.00;;;;;10.31;87.61;102358.75;5081369;27;45307;-55
2021/11/20 07:46:56;;;;;;;;;10.25;8.75;;;;;10.34;87.39;102356.13;5081294;27;45184;-54
2021/11/20 07:49:21;;;;;;;;;14.50;9.75;;;;;10.39;87.73;102354.38;5081078;27;45247;-56
2021/11/20 07:51:46;;;;;;;;;10.00;7.50;;;;;10.42;87.30;102357.00;5080954;27;45349;-55
2021/11/20 07:54:12;;;;;;;;;12.75;12.75;;;;;10.43;87.25;102350.09;5081446;27;45263;-55
2021/11/20 07:56:41;;;;;;;;;13.00;9.00;;;;;10.43;87.31;102353.56;5081244;27;45233;-55
2021/11/20 07:59:13;;;;;;;;;13.00;7.75;;;;;10.45;87.61;102353.53;5081292;27;45446;-54
2021/11/20 08:01:39;;;;;;;;;12.25;9.50;;;;;10.48;87.50;102354.41;5080773;27;46080;-56
2021/11/20 08:04:05;;;;;;;;;11.75;10.50;;;;;10.53;87.62;102360.44;5081114;27;45866;-56
2021/11/20 08:06:34;;;;;;;;;13.50;9.25;;;;;10.55;87.62;102348.31;5081022;27;45339;-56
2021/11/20 08:09:03;;;;;;;;;13.75;8.75;;;;;10.55;87.61;102353.50;5081301;27;45235;-56
2021/11/20 08:11:34;;;;;;;;;9.75;8.75;;;;;10.55;87.52;102361.31;5081015;27;47504;-56
2021/11/20 08:14:00;;;;;;;;;13.25;8.00;;;;;10.54;86.51;102356.13;5082070;27;45445;-57
2021/11/20 08:16:27;;;;;;;;;8.75;8.75;;;;;10.45;86.71;102354.41;5080963;27;45324;-57
2021/11/20 08:18:53;;;;;;;;;11.25;8.50;;;;;10.37;86.71;102350.94;5085748;27;45657;-57
2021/11/20 08:21:18;;;;;;;;;6.75;6.00;;;;;10.38;87.34;102347.47;5070796;27;48020;-56
2021/11/20 08:23:44;;;;;;;;;16.25;13.00;;;;;10.43;87.50;102350.94;5080414;27;45244;-58
2021/11/20 08:26:09;;;;;;;;;9.00;8.75;;;;;10.40;86.69;102353.53;5080752;27;45304;-56
2021/11/20 08:28:36;;;;;;;;;10.25;8.50;;;;;10.44;86.78;102344.03;5080686;27;45406;-56
2021/11/20 08:31:03;;;;;;;;;13.50;10.25;;;;;10.40;86.31;102350.06;5080347;27;46929;-56
2021/11/20 08:33:29;;;;;;;;;17.00;14.50;;;;;10.33;87.02;102344.00;5080487;27;45781;-56
2021/11/20 08:35:55;;;;;;;;;13.25;8.00;;;;;10.28;86.34;102340.56;5080477;27;45273;-55
2021/11/20 08:38:22;;;;;;;;;16.50;10.50;;;;;10.26;86.95;102335.38;5079910;27;45224;-55
2021/11/20 08:40:48;;;;;;;;;10.00;8.00;;;;;10.34;86.82;102340.53;5079130;27;46804;-60
2021/11/20 08:43:14;;;;;;;;;8.75;7.50;;;;;10.39;86.64;102332.75;5080481;27;45565;-57
2021/11/20 08:45:50;;;;;;;;;12.50;11.25;;;;;10.38;86.64;102325.81;5075590;27;45288;-59
2021/11/20 08:48:18;;;;;;;;;11.25;10.25;;;;;10.45;86.84;102325.81;5073425;28;45330;-58
2021/11/20 08:50:51;;;;;;;;;15.75;9.00;;;;;10.51;86.95;102317.13;5080472;27;45544;-57
2021/11/20 08:53:18;;;;;;;;;13.00;10.25;;;;;10.56;86.91;102317.97;5074745;28;45824;-57
2021/11/20 08:55:44;;;;;;;;;13.75;9.25;;;;;10.60;86.76;102301.50;5080479;27;45298;-57
2021/11/20 08:58:09;;;;;;;;;10.25;8.75;;;;;10.67;86.79;102305.84;5079894;27;45508;-60
2021/11/20 09:01:09;;;;;;;;;15.50;13.00;;;;;10.70;86.12;102299.75;5068509;28;46265;-59
2021/11/20 09:03:45;;;;;;;;;15.25;9.50;;;;;10.69;86.21;102290.22;5076273;28;45528;-57
2021/11/20 09:06:43;;;;;;;;;11.50;11.50;;;;;10.73;86.33;102295.41;5074264;27;45349;-58
2021/11/20 09:09:14;;;;;;;;;13.50;8.50;;;;;10.76;85.79;102292.78;5064162;27;45390;-57
2021/11/20 09:11:42;;;;;;;;;14.25;9.75;;;;;10.80;85.67;102288.44;5081583;27;46686;-57
2021/11/20 09:14:13;;;;;;;;;13.75;10.25;;;;;10.78;85.41;102287.59;5080742;27;45454;-57
2021/11/20 09:16:40;;;;;;;;;13.00;11.00;;;;;10.77;85.26;102284.13;5073413;27;45367;-57
2021/11/20 09:19:07;;;;;;;;;14.75;10.00;;;;;10.76;85.26;102281.53;5084937;27;45542;-57
2021/11/20 09:21:33;;;;;;;;;11.75;9.50;;;;;10.79;84.90;102282.38;5074192;27;46887;-57
2021/11/20 09:23:59;;;;;;;;;12.25;6.75;;;;;10.81;85.01;102282.38;5080155;28;45837;-58
2021/11/20 09:26:26;;;;;;;;;15.50;12.75;;;;;10.82;85.32;102276.34;5078759;27;45434;-56
2021/11/20 09:28:54;;;;;;;;;22.00;15.50;;;;;10.84;85.28;102278.03;5072110;27;45274;-57
2021/11/20 09:31:20;;;;;;;;;21.75;14.75;;;;;10.88;85.43;102278.91;5068732;28;47236;-56
2021/11/20 09:33:45;;;;;;;;;20.00;14.50;;;;;10.89;85.01;102281.50;5068674;28;46560;-57
2021/11/20 09:36:11;;;;;;;;;13.50;13.25;;;;;10.92;85.14;102281.47;5068793;27;45485;-57
2021/11/20 09:38:38;;;;;;;;;14.25;10.75;;;;;10.92;85.43;102276.28;5067316;28;45594;-56
2021/11/20 09:41:18;;;;;;;;;15.25;10.00;;;;;10.91;84.79;102271.94;5068123;28;47027;-58
2021/11/20 09:43:48;;;;;;;;;16.00;12.25;;;;;10.91;84.78;102274.53;5066745;27;45509;-58
2021/11/20 09:46:19;;;;;;;;;18.00;14.00;;;;;10.94;84.87;102271.06;5067245;28;45386;-56
2021/11/20 09:48:53;;;;;;;;;16.25;13.25;;;;;10.92;84.38;102272.81;5068268;28;45501;-57
2021/11/20 09:51:27;;;;;;;;;17.75;12.25;;;;;10.90;84.44;102267.59;5068610;28;46648;-58
2021/11/20 09:53:53;;;;;;;;;18.50;16.50;;;;;10.90;84.53;102270.22;5069779;27;45305;-57
2021/11/20 09:56:25;;;;;;;;;16.00;15.00;;;;;10.93;84.76;102275.41;5062222;28;45283;-59
2021/11/20 09:59:16;;;;;;;;;20.25;16.00;;;;;10.93;84.15;102258.94;5066587;28;45315;-61
2021/11/20 10:02:07;;;;;;;;;12.75;8.50;;;;;10.87;83.77;102264.16;5079131;27;46087;-56
2021/11/20 10:05:00;;;;;;;;;17.50;13.50;;;;;10.84;83.82;102259.84;5072907;27;45348;-56
2021/11/20 10:07:35;;;;;;;;;12.50;9.00;;;;;10.89;83.94;102254.63;5079179;27;45460;-57
2021/11/20 10:10:14;;;;;;;;;8.75;7.50;;;;;10.95;83.84;102245.03;5078206;28;45500;-56
2021/11/20 10:12:47;;;;;;;;;12.25;12.25;;;;;10.94;83.08;102245.91;5076101;27;46442;-56
2021/11/20 10:15:30;;;;;;;;;11.50;9.75;;;;;10.93;83.14;102244.19;5078619;27;45276;-61
2021/11/20 10:18:20;;;;;;;;;11.25;10.00;;;;;10.99;83.11;102238.06;5077475;27;45402;-60
2021/11/20 10:20:57;;;;;;;;;14.00;10.00;;;;;11.03;83.12;102238.94;5068566;28;45317;-60
2021/11/20 10:23:45;;;;;;;;;14.00;10.00;;;;;11.03;82.88;102237.22;5078861;27;45638;-60
2021/11/20 10:26:14;;;;;;;;;14.50;11.00;;;;;11.11;82.90;102232.81;5079024;28;45773;-61
2021/11/20 10:29:01;;;;;;;;;17.25;10.75;;;;;11.17;82.69;102224.09;5079121;27;45459;-61
2021/11/20 10:31:44;;;;;;;;;13.75;12.50;;;;;11.20;82.62;102221.47;5078782;27;45342;-58
2021/11/20 10:34:21;;;;;;;;;16.75;14.75;;;;;11.24;82.98;102225.81;5078886;27;46313;-61
2021/11/20 10:36:56;;;;;;;;;14.50;11.25;;;;;11.27;82.30;102218.84;5079040;27;45318;-60
2021/11/20 10:39:45;;;;;;;;;14.25;11.25;;;;;11.30;82.88;102224.91;5081486;28;45358;-59
2021/11/20 10:42:16;;;;;;;;;25.00;17.50;;;;;11.27;82.26;102218.84;5075121;27;45614;-59
2021/11/20 10:44:46;;;;;;;;;20.75;14.25;;;;;11.26;82.59;102221.47;5082419;27;45334;-60
2021/11/20 10:47:12;;;;;;;;;11.25;8.00;;;;;11.19;82.08;102214.53;5082290;27;45693;-60
2021/11/20 10:50:02;;;;;;;;;23.75;15.00;;;;;11.16;82.11;102209.38;5082075;27;45401;-61
2021/11/20 10:52:46;;;;;;;;;17.75;11.25;;;;;11.15;82.10;102205.91;5081880;27;45416;-63
2021/11/20 10:55:20;;;;;;;;;15.00;10.75;;;;;11.17;81.82;102195.47;5073070;27;46755;-61
2021/11/20 10:58:10;;;;;;;;;14.25;12.50;;;;;11.24;82.12;102194.59;5080406;27;45573;-68
2021/11/20 11:01:07;;;;;;;;;14.75;14.25;;;;;11.26;81.64;102198.91;5081628;27;45198;-63
2021/11/20 11:03:38;;;;;;;;;17.75;13.50;;;;;11.31;81.93;102193.66;5082085;27;45232;-64
2021/11/20 11:06:35;;;;;;;;;17.75;14.25;;;;;11.29;81.71;102185.00;5075543;27;46266;-64
2021/11/20 11:09:25;;;;;;;;;13.25;12.50;;;;;11.30;81.56;102180.66;5082067;27;45731;-62
2021/11/20 11:12:14;;;;;;;;;22.50;15.75;;;;;11.27;81.67;102161.59;5084124;27;45344;-68
2021/11/20 11:14:58;;;;;;;;;20.00;17.75;;;;;11.22;81.41;102149.50;5081703;27;45398;-67
2021/11/20 11:17:52;;;;;;;;;22.75;15.00;;;;;11.19;81.71;102152.97;5070562;28;46369;-62
2021/11/20 11:20:49;;;;;;;;;19.75;15.25;;;;;11.18;81.72;102145.16;5065984;28;45861;-63
2021/11/20 11:23:14;;;;;;;;;22.50;16.50;;;;;11.22;81.32;102133.88;5080675;27;45484;-63
2021/11/20 11:26:00;;;;;;;;;20.25;15.25;;;;;11.23;81.44;102133.88;5079758;27;45680;-63
2021/11/20 11:28:51;;;;;;;;;20.75;15.50;;;;;11.25;81.36;102136.47;5080663;27;46318;-63
2021/11/20 11:31:38;;;;;;;;;21.25;17.00;;;;;11.28;81.60;102131.22;5070935;27;45342;-63